createdAt,value
2019-05-04T00:00:38.591Z,0.00
2019-05-04T00:01:38.570Z,0.00
2019-05-04T00:02:38.553Z,0.00
2019-05-04T00:03:38.532Z,0.00
2019-05-04T00:04:38.516Z,0.00
2019-05-04T00:05:38.495Z,0.00
2019-05-04T00:06:48.164Z,0.00
2019-05-04T00:07:38.450Z,0.00
2019-05-04T00:08:38.432Z,0.00
2019-05-04T00:09:38.411Z,0.00
2019-05-04T00:10:38.394Z,0.00
2019-05-04T00:11:38.370Z,0.00
2019-05-04T00:12:38.350Z,0.00
2019-05-04T00:13:38.330Z,0.00
2019-05-04T00:14:38.318Z,0.00
2019-05-04T00:15:38.290Z,0.00
2019-05-04T00:16:38.270Z,0.00
2019-05-04T00:17:38.249Z,0.00
2019-05-04T00:18:38.233Z,0.00
2019-05-04T00:19:38.217Z,0.00
2019-05-04T00:20:50.397Z,0.00
2019-05-04T00:21:38.170Z,0.00
2019-05-04T00:22:38.158Z,0.00
2019-05-04T00:23:38.130Z,0.00
2019-05-04T00:24:38.110Z,0.00
2019-05-04T00:25:38.161Z,0.00
2019-05-04T00:26:38.069Z,0.00
2019-05-04T00:27:38.049Z,0.00
2019-05-04T00:28:38.038Z,0.00
2019-05-04T00:29:38.011Z,0.00
2019-05-04T00:30:37.990Z,0.00
2019-05-04T00:31:37.981Z,0.00
2019-05-04T00:32:37.951Z,0.00
2019-05-04T00:33:37.930Z,0.00
2019-05-04T00:34:37.915Z,0.00
2019-05-04T00:35:37.890Z,0.00
2019-05-04T00:36:37.878Z,0.00
2019-05-04T00:37:37.852Z,0.00
2019-05-04T00:38:37.845Z,0.00
2019-05-04T00:39:37.811Z,0.00
2019-05-04T00:40:37.794Z,0.00
2019-05-04T00:41:37.769Z,0.00
2019-05-04T00:42:37.750Z,0.00
2019-05-04T00:43:37.728Z,0.00
2019-05-04T00:44:37.721Z,0.00
2019-05-04T00:45:37.690Z,0.00
2019-05-04T00:46:37.701Z,0.00
2019-05-04T00:47:37.650Z,0.00
2019-05-04T00:48:37.628Z,0.00
2019-05-04T00:49:37.611Z,0.00
2019-05-04T00:50:37.594Z,0.00
2019-05-04T00:51:37.566Z,0.00
2019-05-04T00:52:37.556Z,0.00
2019-05-04T00:53:37.526Z,0.00
2019-05-04T00:54:37.509Z,0.00
2019-05-04T00:55:37.503Z,0.00
2019-05-04T00:56:37.469Z,0.00
2019-05-04T00:57:37.447Z,0.00
2019-05-04T00:58:37.427Z,0.00
2019-05-04T00:59:37.414Z,0.00
2019-05-04T01:00:37.385Z,0.00
2019-05-04T01:01:37.366Z,0.00
2019-05-04T01:02:37.349Z,0.00
2019-05-04T01:03:37.327Z,0.00
2019-05-04T01:04:37.311Z,0.00
2019-05-04T01:05:37.286Z,0.00
2019-05-04T01:06:37.266Z,0.00
2019-05-04T01:07:37.248Z,0.00
2019-05-04T01:08:37.226Z,0.00
2019-05-04T01:09:37.203Z,0.00
2019-05-04T01:10:37.190Z,0.00
2019-05-04T01:11:37.167Z,0.00
2019-05-04T01:12:37.146Z,0.00
2019-05-04T01:13:37.123Z,0.00
2019-05-04T01:14:37.104Z,0.00
2019-05-04T01:15:37.081Z,0.00
2019-05-04T01:16:37.068Z,0.00
2019-05-04T01:17:37.042Z,0.00
2019-05-04T01:18:37.034Z,0.00
2019-05-04T01:19:37.003Z,0.00
2019-05-04T01:20:36.983Z,0.00
2019-05-04T01:21:36.965Z,0.00
2019-05-04T01:22:36.948Z,0.00
2019-05-04T01:23:36.926Z,0.00
2019-05-04T01:24:36.905Z,0.00
2019-05-04T01:25:36.887Z,0.00
2019-05-04T01:26:36.861Z,0.00
2019-05-04T01:27:36.845Z,0.00
2019-05-04T01:28:36.821Z,0.00
2019-05-04T01:29:36.801Z,0.00
2019-05-04T01:30:36.785Z,0.00
2019-05-04T01:31:36.772Z,0.00
2019-05-04T01:32:38.925Z,0.00
2019-05-04T01:33:36.721Z,0.00
2019-05-04T01:34:36.703Z,0.00
2019-05-04T01:35:36.685Z,0.00
2019-05-04T01:36:36.670Z,0.00
2019-05-04T01:37:36.652Z,0.00
2019-05-04T01:38:36.622Z,0.00
2019-05-04T01:39:36.606Z,0.00
2019-05-04T01:40:36.593Z,0.00
2019-05-04T01:41:36.560Z,0.00
2019-05-04T01:42:36.547Z,0.00
2019-05-04T01:43:36.524Z,0.00
2019-05-04T01:44:36.501Z,0.00
2019-05-04T01:45:36.484Z,0.00
2019-05-04T01:46:36.463Z,0.00
2019-05-04T01:47:36.443Z,0.00
2019-05-04T01:48:36.421Z,0.00
2019-05-04T01:49:36.401Z,0.00
2019-05-04T01:50:37.724Z,0.00
2019-05-04T01:51:36.358Z,0.00
2019-05-04T01:52:36.343Z,0.00
2019-05-04T01:53:36.326Z,0.00
2019-05-04T01:54:36.296Z,0.00
2019-05-04T01:55:36.279Z,0.00
2019-05-04T01:56:36.257Z,0.00
2019-05-04T01:57:36.236Z,0.00
2019-05-04T01:58:36.216Z,0.00
2019-05-04T01:59:36.202Z,0.00
2019-05-04T02:00:36.176Z,0.00
2019-05-04T02:01:36.154Z,0.00
2019-05-04T02:02:36.136Z,0.00
2019-05-04T02:03:36.120Z,0.00
2019-05-04T02:04:36.102Z,0.00
2019-05-04T02:05:36.074Z,0.00
2019-05-04T02:06:36.053Z,0.00
2019-05-04T02:07:44.567Z,0.00
2019-05-04T02:08:36.013Z,0.00
2019-05-04T02:09:35.992Z,0.00
2019-05-04T02:10:35.970Z,0.00
2019-05-04T02:11:35.952Z,0.00
2019-05-04T02:12:35.940Z,0.00
2019-05-04T02:13:35.911Z,0.00
2019-05-04T02:14:35.897Z,0.00
2019-05-04T02:15:35.875Z,0.00
2019-05-04T02:16:35.859Z,0.00
2019-05-04T02:17:35.833Z,0.00
2019-05-04T02:18:35.809Z,0.00
2019-05-04T02:19:35.795Z,0.00
2019-05-04T02:20:35.778Z,0.00
2019-05-04T02:21:35.761Z,0.00
2019-05-04T02:22:35.728Z,0.00
2019-05-04T02:23:35.712Z,0.00
2019-05-04T02:24:35.692Z,0.00
2019-05-04T02:25:35.666Z,0.00
2019-05-04T02:26:35.645Z,0.00
2019-05-04T02:27:35.627Z,0.00
2019-05-04T02:28:35.608Z,0.00
2019-05-04T02:29:35.587Z,0.00
2019-05-04T02:30:36.904Z,0.00
2019-05-04T02:31:36.426Z,0.00
2019-05-04T02:32:36.292Z,0.00
2019-05-04T02:33:35.888Z,0.00
2019-05-04T02:34:36.758Z,0.00
2019-05-04T02:35:35.961Z,0.00
2019-05-04T02:36:35.700Z,0.00
2019-05-04T02:37:36.853Z,0.00
2019-05-04T02:38:36.310Z,0.00
2019-05-04T02:39:36.509Z,0.00
2019-05-04T02:40:45.697Z,0.00
2019-05-04T02:41:37.156Z,0.00
2019-05-04T02:42:35.558Z,0.00
2019-05-04T02:43:36.255Z,0.00
2019-05-04T02:44:36.214Z,0.00
2019-05-04T02:45:36.145Z,0.00
2019-05-04T02:46:35.922Z,0.00
2019-05-04T02:47:36.036Z,0.00
2019-05-04T02:48:35.466Z,0.00
2019-05-04T02:49:36.182Z,0.00
2019-05-04T02:50:35.747Z,0.00
2019-05-04T02:51:35.688Z,0.00
2019-05-04T02:52:35.578Z,0.00
2019-05-04T02:53:36.119Z,0.00
2019-05-04T02:54:36.156Z,0.00
2019-05-04T02:55:35.873Z,0.00
2019-05-04T02:56:35.055Z,0.00
2019-05-04T02:57:35.679Z,0.00
2019-05-04T02:58:38.306Z,0.00
2019-05-04T02:59:36.010Z,0.00
2019-05-04T03:00:36.332Z,0.00
2019-05-04T03:01:35.686Z,0.00
2019-05-04T03:02:35.830Z,0.00
2019-05-04T03:03:35.614Z,0.00
2019-05-04T03:04:35.931Z,0.00
2019-05-04T03:05:36.076Z,0.00
2019-05-04T03:06:35.931Z,0.00
2019-05-04T03:07:35.584Z,0.00
2019-05-04T03:08:38.540Z,0.00
2019-05-04T03:09:35.648Z,0.00
2019-05-04T03:10:36.362Z,0.00
2019-05-04T03:11:36.020Z,0.00
2019-05-04T03:12:35.864Z,0.00
2019-05-04T03:13:35.689Z,0.00
2019-05-04T03:14:36.506Z,0.00
2019-05-04T03:15:36.593Z,0.00
2019-05-04T03:16:42.086Z,0.00
2019-05-04T03:17:35.480Z,0.00
2019-05-04T03:18:35.437Z,0.00
2019-05-04T03:19:35.851Z,0.00
2019-05-04T03:20:35.886Z,0.00
2019-05-04T03:21:35.898Z,0.00
2019-05-04T03:22:35.866Z,0.00
2019-05-04T03:23:35.920Z,0.00
2019-05-04T03:24:35.735Z,0.00
2019-05-04T03:25:35.475Z,0.00
2019-05-04T03:26:36.196Z,0.00
2019-05-04T03:27:35.723Z,0.00
2019-05-04T03:28:35.943Z,0.00
2019-05-04T03:29:36.785Z,0.00
2019-05-04T03:30:38.817Z,0.00
2019-05-04T03:31:38.890Z,0.00
2019-05-04T03:32:37.874Z,0.00
2019-05-04T03:33:38.308Z,0.00
2019-05-04T03:34:53.893Z,4.00
2019-05-04T03:35:44.549Z,4.00
2019-05-04T03:36:40.630Z,0.00
2019-05-04T03:37:35.709Z,0.00
2019-05-04T03:38:48.650Z,0.00
2019-05-04T03:39:36.240Z,4.00
2019-05-04T03:40:36.495Z,4.00
2019-05-04T03:41:35.049Z,0.00
2019-05-04T03:42:35.411Z,4.00
2019-05-04T03:43:36.286Z,4.00
2019-05-04T03:44:36.445Z,4.00
2019-05-04T03:45:35.109Z,8.00
2019-05-04T03:46:36.184Z,4.00
2019-05-04T03:47:35.757Z,4.00
2019-05-04T03:48:36.176Z,8.00
2019-05-04T03:49:36.292Z,8.00
2019-05-04T03:50:35.500Z,8.00
2019-05-04T03:51:35.119Z,8.00
2019-05-04T03:52:36.364Z,12.00
2019-05-04T03:53:36.290Z,12.00
2019-05-04T03:54:36.368Z,12.00
2019-05-04T03:55:35.252Z,12.00
2019-05-04T03:56:35.173Z,16.00
2019-05-04T03:57:35.750Z,16.00
2019-05-04T03:58:36.131Z,20.00
2019-05-04T03:59:35.636Z,24.00
2019-05-04T04:00:36.320Z,20.00
2019-05-04T04:01:35.665Z,28.00
2019-05-04T04:02:37.252Z,24.00
2019-05-04T04:03:35.931Z,32.00
2019-05-04T04:04:36.246Z,28.00
2019-05-04T04:05:36.071Z,36.00
2019-05-04T04:06:35.928Z,36.00
2019-05-04T04:07:35.870Z,40.00
2019-05-04T04:08:35.681Z,40.00
2019-05-04T04:09:33.537Z,44.00
2019-05-04T04:10:36.220Z,48.00
2019-05-04T04:11:35.769Z,52.00
2019-05-04T04:12:36.229Z,56.00
2019-05-04T04:13:36.104Z,56.00
2019-05-04T04:14:36.029Z,56.00
2019-05-04T04:15:36.241Z,60.00
2019-05-04T04:16:33.404Z,64.00
2019-05-04T04:17:35.716Z,64.00
2019-05-04T04:18:35.713Z,72.00
2019-05-04T04:19:35.912Z,76.00
2019-05-04T04:20:35.642Z,80.00
2019-05-04T04:21:36.198Z,88.00
2019-05-04T04:22:36.046Z,92.00
2019-05-04T04:23:35.975Z,96.00
2019-05-04T04:24:35.661Z,104.00
2019-05-04T04:25:35.156Z,112.00
2019-05-04T04:26:35.825Z,120.00
2019-05-04T04:27:35.770Z,120.00
2019-05-04T04:28:35.599Z,128.00
2019-05-04T04:29:35.687Z,132.00
2019-05-04T04:30:36.130Z,132.00
2019-05-04T04:31:35.747Z,144.00
2019-05-04T04:32:35.772Z,148.00
2019-05-04T04:33:48.568Z,156.00
2019-05-04T04:34:35.463Z,168.00
2019-05-04T04:35:35.543Z,176.00
2019-05-04T04:36:38.134Z,184.00
2019-05-04T04:37:35.663Z,192.00
2019-05-04T04:38:35.526Z,200.00
2019-05-04T04:39:38.289Z,208.00
2019-05-04T04:40:35.425Z,216.00
2019-05-04T04:41:35.533Z,228.00
2019-05-04T04:42:35.619Z,240.00
2019-05-04T04:43:36.099Z,248.00
2019-05-04T04:44:32.816Z,260.00
2019-05-04T04:45:35.601Z,268.00
2019-05-04T04:46:35.436Z,284.00
2019-05-04T04:47:35.473Z,292.00
2019-05-04T04:48:35.906Z,308.00
2019-05-04T04:49:32.716Z,320.00
2019-05-04T04:50:32.698Z,332.00
2019-05-04T04:51:32.679Z,340.00
2019-05-04T04:52:32.658Z,352.00
2019-05-04T04:53:32.632Z,364.00
2019-05-04T04:54:35.050Z,380.00
2019-05-04T04:55:32.591Z,392.00
2019-05-04T04:56:35.148Z,400.00
2019-05-04T04:57:35.354Z,416.00
2019-05-04T04:58:34.909Z,432.00
2019-05-04T04:59:32.506Z,452.00
2019-05-04T05:00:34.889Z,468.00
2019-05-04T05:01:32.466Z,488.00
2019-05-04T05:02:43.153Z,508.00
2019-05-04T05:03:35.126Z,528.00
2019-05-04T05:04:34.928Z,548.00
2019-05-04T05:05:34.865Z,568.00
2019-05-04T05:06:34.853Z,584.00
2019-05-04T05:07:35.176Z,600.00
2019-05-04T05:08:32.326Z,616.00
2019-05-04T05:09:42.553Z,636.00
2019-05-04T05:10:34.506Z,652.00
2019-05-04T05:11:34.690Z,680.00
2019-05-04T05:12:34.674Z,712.00
2019-05-04T05:13:34.067Z,748.00
2019-05-04T05:14:32.200Z,788.00
2019-05-04T05:15:34.065Z,820.00
2019-05-04T05:16:34.167Z,848.00
2019-05-04T05:17:34.202Z,884.00
2019-05-04T05:18:32.112Z,924.00
2019-05-04T05:19:32.091Z,948.00
2019-05-04T05:20:34.184Z,972.00
2019-05-04T05:21:34.293Z,1004.00
2019-05-04T05:22:32.030Z,1052.00
2019-05-04T05:23:32.009Z,1096.00
2019-05-04T05:24:31.993Z,1124.00
2019-05-04T05:25:31.971Z,1160.00
2019-05-04T05:26:31.954Z,1208.00
2019-05-04T05:27:31.929Z,1268.00
2019-05-04T05:28:31.913Z,1332.00
2019-05-04T05:29:31.887Z,1512.00
2019-05-04T05:30:31.867Z,1712.00
2019-05-04T05:31:31.849Z,1844.00
2019-05-04T05:32:31.828Z,2020.00
2019-05-04T05:33:31.807Z,2124.00
2019-05-04T05:34:31.790Z,2108.00
2019-05-04T05:35:31.779Z,2092.00
2019-05-04T05:36:31.748Z,1948.00
2019-05-04T05:37:31.724Z,1964.00
2019-05-04T05:38:31.708Z,1908.00
2019-05-04T05:39:31.684Z,1888.00
2019-05-04T05:40:31.661Z,1824.00
2019-05-04T05:41:31.639Z,1760.00
2019-05-04T05:42:37.691Z,1720.00
2019-05-04T05:43:31.599Z,1688.00
2019-05-04T05:44:38.023Z,1708.00
2019-05-04T05:45:31.563Z,1904.00
2019-05-04T05:46:34.294Z,2220.00
2019-05-04T05:47:31.521Z,2444.00
2019-05-04T05:48:34.843Z,2560.00
2019-05-04T05:49:31.477Z,2612.00
2019-05-04T05:50:34.489Z,2624.00
2019-05-04T05:51:31.434Z,2620.00
2019-05-04T05:52:39.476Z,2648.00
2019-05-04T05:53:31.401Z,2700.00
2019-05-04T05:54:38.811Z,2744.00
2019-05-04T05:55:31.357Z,2796.00
2019-05-04T05:56:38.411Z,2836.00
2019-05-04T05:57:31.320Z,2900.00
2019-05-04T05:58:36.049Z,3016.00
2019-05-04T05:59:31.281Z,3016.00
2019-05-04T06:00:31.256Z,3024.00
2019-05-04T06:01:31.238Z,3040.00
2019-05-04T06:02:31.218Z,3072.00
2019-05-04T06:03:32.585Z,3096.00
2019-05-04T06:04:31.184Z,3120.00
2019-05-04T06:05:32.553Z,3112.00
2019-05-04T06:06:31.136Z,3096.00
2019-05-04T06:07:31.110Z,3124.00
2019-05-04T06:08:31.097Z,3152.00
2019-05-04T06:09:31.073Z,3168.00
2019-05-04T06:10:31.049Z,3168.00
2019-05-04T06:11:37.020Z,3160.00
2019-05-04T06:12:31.016Z,3188.00
2019-05-04T06:13:35.407Z,3204.00
2019-05-04T06:14:30.970Z,3244.00
2019-05-04T06:15:34.843Z,3292.00
2019-05-04T06:16:30.935Z,3328.00
2019-05-04T06:17:34.652Z,3392.00
2019-05-04T06:18:33.762Z,3472.00
2019-05-04T06:19:35.375Z,3524.00
2019-05-04T06:20:30.852Z,3556.00
2019-05-04T06:21:37.022Z,3656.00
2019-05-04T06:22:30.808Z,3688.00
2019-05-04T06:23:36.823Z,3692.00
2019-05-04T06:24:30.771Z,3740.00
2019-05-04T06:25:37.671Z,3784.00
2019-05-04T06:26:30.737Z,3932.00
2019-05-04T06:27:30.713Z,3928.00
2019-05-04T06:28:30.691Z,3964.00
2019-05-04T06:29:30.669Z,3984.00
2019-05-04T06:30:30.651Z,4044.00
2019-05-04T06:31:30.631Z,4080.00
2019-05-04T06:32:30.615Z,4080.00
2019-05-04T06:33:30.590Z,4088.00
2019-05-04T06:34:31.181Z,4100.00
2019-05-04T06:35:30.563Z,4124.00
2019-05-04T06:36:30.540Z,4144.00
2019-05-04T06:37:30.511Z,4172.00
2019-05-04T06:38:30.491Z,4172.00
2019-05-04T06:39:30.477Z,4232.00
2019-05-04T06:40:36.606Z,4272.00
2019-05-04T06:41:33.205Z,4348.00
2019-05-04T06:42:30.423Z,4372.00
2019-05-04T06:43:52.529Z,4408.00
2019-05-04T06:44:30.373Z,4432.00
2019-05-04T06:45:30.357Z,4452.00
2019-05-04T06:46:32.077Z,4484.00
2019-05-04T06:47:30.339Z,4504.00
2019-05-04T06:48:31.329Z,4556.00
2019-05-04T06:49:30.278Z,4596.00
2019-05-04T06:50:30.277Z,4648.00
2019-05-04T06:51:30.246Z,4712.00
2019-05-04T06:52:30.605Z,4796.00
2019-05-04T06:53:36.080Z,4812.00
2019-05-04T06:54:32.113Z,4892.00
2019-05-04T06:55:30.163Z,4968.00
2019-05-04T06:56:38.876Z,5280.00
2019-05-04T06:57:40.602Z,5756.00
2019-05-04T06:58:34.639Z,5812.00
2019-05-04T06:59:30.629Z,5596.00
2019-05-04T07:00:31.137Z,5704.00
2019-05-04T07:01:30.044Z,6376.00
2019-05-04T07:02:34.673Z,7548.00
2019-05-04T07:03:30.005Z,6776.00
2019-05-04T07:04:35.154Z,7984.00
2019-05-04T07:05:29.977Z,7384.00
2019-05-04T07:06:34.907Z,7304.00
2019-05-04T07:07:29.932Z,8388.00
2019-05-04T07:08:32.496Z,8184.00
2019-05-04T07:09:42.863Z,7856.00
2019-05-04T07:10:29.870Z,8832.00
2019-05-04T07:11:32.437Z,8736.00
2019-05-04T07:12:30.171Z,9112.00
2019-05-04T07:13:29.817Z,7880.00
2019-05-04T07:14:37.561Z,6900.00
2019-05-04T07:15:29.775Z,8956.00
2019-05-04T07:16:34.925Z,8840.00
2019-05-04T07:17:29.739Z,7516.00
2019-05-04T07:18:34.673Z,5456.00
2019-05-04T07:19:29.709Z,5024.00
2019-05-04T07:20:32.103Z,4416.00
2019-05-04T07:21:29.666Z,3628.00
2019-05-04T07:22:39.403Z,3600.00
2019-05-04T07:23:29.634Z,5884.00
2019-05-04T07:24:34.459Z,7140.00
2019-05-04T07:25:29.594Z,4136.00
2019-05-04T07:26:34.606Z,3716.00
2019-05-04T07:27:29.554Z,7080.00
2019-05-04T07:28:38.138Z,7276.00
2019-05-04T07:29:29.520Z,9668.00
2019-05-04T07:30:31.038Z,8048.00
2019-05-04T07:31:29.488Z,7396.00
2019-05-04T07:32:34.065Z,8324.00
2019-05-04T07:33:29.447Z,7528.00
2019-05-04T07:34:35.474Z,8028.00
2019-05-04T07:35:32.036Z,13088.00
2019-05-04T07:36:29.406Z,12212.00
2019-05-04T07:37:42.684Z,11612.00
2019-05-04T07:38:29.370Z,35296.00
2019-05-04T07:39:29.354Z,34336.00
2019-05-04T07:40:33.226Z,10860.00
2019-05-04T07:41:47.008Z,6732.00
2019-05-04T07:42:30.983Z,17760.00
2019-05-04T07:43:33.391Z,32800.00
2019-05-04T07:44:29.288Z,88576.00
2019-05-04T07:45:30.771Z,89152.00
2019-05-04T07:46:29.252Z,44736.00
2019-05-04T07:47:29.863Z,9004.00
2019-05-04T07:48:29.235Z,77696.00
2019-05-04T07:49:29.209Z,77728.00
2019-05-04T07:50:29.195Z,38368.00
2019-05-04T07:51:29.186Z,88608.00
2019-05-04T07:52:29.177Z,10600.00
2019-05-04T07:53:29.160Z,57984.00
2019-05-04T07:54:29.796Z,91008.00
2019-05-04T07:55:29.143Z,29088.00
2019-05-04T07:56:29.132Z,40064.00
2019-05-04T07:57:29.260Z,87392.00
2019-05-04T07:58:29.115Z,89376.00
2019-05-04T07:59:29.388Z,89184.00
2019-05-04T08:00:29.079Z,87616.00
2019-05-04T08:01:29.069Z,85792.00
2019-05-04T08:02:29.059Z,9324.00
2019-05-04T08:03:29.455Z,7560.00
2019-05-04T08:04:29.042Z,6484.00
2019-05-04T08:05:34.194Z,82240.00
2019-05-04T08:06:29.024Z,6676.00
2019-05-04T08:07:30.232Z,5800.00
2019-05-04T08:08:29.002Z,5416.00
2019-05-04T08:09:28.999Z,4720.00
2019-05-04T08:10:30.390Z,4704.00
2019-05-04T08:11:28.969Z,5164.00
2019-05-04T08:12:39.229Z,7616.00
2019-05-04T08:13:30.040Z,23296.00
2019-05-04T08:14:28.930Z,5268.00
2019-05-04T08:15:29.602Z,4796.00
2019-05-04T08:16:28.907Z,87072.00
2019-05-04T08:17:29.499Z,32544.00
2019-05-04T08:18:28.925Z,5728.00
2019-05-04T08:19:30.305Z,85472.00
2019-05-04T08:20:28.881Z,11124.00
2019-05-04T08:21:31.863Z,10400.00
2019-05-04T08:22:28.836Z,74176.00
2019-05-04T08:23:30.874Z,8808.00
2019-05-04T08:24:31.239Z,6968.00
2019-05-04T08:25:28.785Z,89408.00
2019-05-04T08:26:29.931Z,88992.00
2019-05-04T08:27:28.764Z,53088.00
2019-05-04T08:28:28.766Z,88800.00
2019-05-04T08:29:28.741Z,25248.00
2019-05-04T08:30:30.662Z,8008.00
2019-05-04T08:31:30.352Z,6200.00
2019-05-04T08:32:28.711Z,6232.00
2019-05-04T08:33:29.515Z,22336.00
2019-05-04T08:34:28.694Z,20896.00
2019-05-04T08:35:31.219Z,54304.00
2019-05-04T08:36:28.667Z,30464.00
2019-05-04T08:37:32.190Z,8460.00
2019-05-04T08:38:28.651Z,7560.00
2019-05-04T08:39:29.296Z,11044.00
2019-05-04T08:40:28.624Z,8672.00
2019-05-04T08:41:28.609Z,6936.00
2019-05-04T08:42:30.871Z,6076.00
2019-05-04T08:43:28.586Z,5648.00
2019-05-04T08:44:29.482Z,5056.00
2019-05-04T08:45:28.557Z,4620.00
2019-05-04T08:46:29.980Z,4404.00
2019-05-04T08:47:28.530Z,4016.00
2019-05-04T08:48:29.312Z,3744.00
2019-05-04T08:49:31.788Z,3616.00
2019-05-04T08:50:28.490Z,3660.00
2019-05-04T08:51:33.412Z,8412.00
2019-05-04T08:52:28.460Z,86400.00
2019-05-04T08:53:28.454Z,82624.00
2019-05-04T08:54:29.428Z,86816.00
2019-05-04T08:55:30.545Z,89408.00
2019-05-04T08:56:28.425Z,81280.00
2019-05-04T08:57:33.796Z,80704.00
2019-05-04T08:58:29.273Z,79456.00
2019-05-04T08:59:28.391Z,84672.00
2019-05-04T09:00:33.529Z,83808.00
2019-05-04T09:01:28.355Z,77920.00
2019-05-04T09:02:30.533Z,82560.00
2019-05-04T09:03:28.346Z,7240.00
2019-05-04T09:04:29.447Z,5932.00
2019-05-04T09:05:35.604Z,5696.00
2019-05-04T09:06:31.629Z,5588.00
2019-05-04T09:07:28.309Z,7964.00
2019-05-04T09:08:28.286Z,8576.00
2019-05-04T09:09:30.441Z,7568.00
2019-05-04T09:10:28.316Z,7988.00
2019-05-04T09:11:29.865Z,16512.00
2019-05-04T09:12:37.069Z,73856.00
2019-05-04T09:13:28.236Z,56352.00
2019-05-04T09:14:33.027Z,44992.00
2019-05-04T09:15:28.208Z,82048.00
2019-05-04T09:16:33.559Z,33888.00
2019-05-04T09:17:28.183Z,8376.00
2019-05-04T09:18:29.383Z,8440.00
2019-05-04T09:19:28.157Z,84608.00
2019-05-04T09:20:28.903Z,45344.00
2019-05-04T09:21:28.147Z,32832.00
2019-05-04T09:22:29.870Z,27488.00
2019-05-04T09:23:28.591Z,28704.00
2019-05-04T09:24:28.105Z,27168.00
2019-05-04T09:25:29.377Z,28160.00
2019-05-04T09:26:28.075Z,31392.00
2019-05-04T09:27:29.659Z,33216.00
2019-05-04T09:28:28.053Z,35328.00
2019-05-04T09:29:30.429Z,37632.00
2019-05-04T09:30:28.031Z,39392.00
2019-05-04T09:31:30.912Z,36576.00
2019-05-04T09:32:32.863Z,6664.00
2019-05-04T09:33:32.446Z,5424.00
2019-05-04T09:34:32.019Z,5444.00
2019-05-04T09:35:27.987Z,16672.00
2019-05-04T09:36:31.018Z,25440.00
2019-05-04T09:37:27.954Z,6184.00
2019-05-04T09:38:32.348Z,6676.00
2019-05-04T09:39:27.934Z,6772.00
2019-05-04T09:40:27.923Z,8664.00
2019-05-04T09:41:27.909Z,7832.00
2019-05-04T09:42:43.929Z,17184.00
2019-05-04T09:43:36.056Z,16416.00
2019-05-04T09:44:27.880Z,16704.00
2019-05-04T09:45:28.852Z,9596.00
2019-05-04T09:46:27.853Z,7684.00
2019-05-04T09:47:29.892Z,6952.00
2019-05-04T09:48:27.829Z,15168.00
2019-05-04T09:49:28.772Z,14344.00
2019-05-04T09:50:27.801Z,13692.00
2019-05-04T09:51:30.656Z,13188.00
2019-05-04T09:52:27.778Z,12768.00
2019-05-04T09:53:34.226Z,12608.00
2019-05-04T09:54:27.752Z,12844.00
2019-05-04T09:55:31.350Z,12988.00
2019-05-04T09:56:27.745Z,13120.00
2019-05-04T09:57:32.180Z,13432.00
2019-05-04T09:58:30.194Z,10808.00
2019-05-04T09:59:27.710Z,14056.00
2019-05-04T10:00:30.442Z,6776.00
2019-05-04T10:01:27.676Z,6456.00
2019-05-04T10:02:27.652Z,5924.00
2019-05-04T10:03:27.645Z,5824.00
2019-05-04T10:04:27.639Z,6624.00
2019-05-04T10:05:28.387Z,7380.00
2019-05-04T10:06:30.412Z,13588.00
2019-05-04T10:07:27.594Z,13388.00
2019-05-04T10:08:27.579Z,13232.00
2019-05-04T10:09:27.571Z,13288.00
2019-05-04T10:10:27.563Z,8704.00
2019-05-04T10:11:28.099Z,7320.00
2019-05-04T10:12:27.529Z,12112.00
2019-05-04T10:13:27.514Z,7640.00
2019-05-04T10:14:27.505Z,6520.00
2019-05-04T10:15:27.489Z,11748.00
2019-05-04T10:16:30.387Z,12024.00
2019-05-04T10:17:27.469Z,12008.00
2019-05-04T10:18:27.449Z,11836.00
2019-05-04T10:19:27.446Z,11736.00
2019-05-04T10:20:27.424Z,11872.00
2019-05-04T10:21:27.410Z,11736.00
2019-05-04T10:22:27.398Z,11564.00
2019-05-04T10:23:27.387Z,11288.00
2019-05-04T10:24:27.374Z,10740.00
2019-05-04T10:25:27.363Z,5404.00
2019-05-04T10:26:27.355Z,5956.00
2019-05-04T10:27:27.335Z,5004.00
2019-05-04T10:28:27.328Z,4616.00
2019-05-04T10:29:27.309Z,4456.00
2019-05-04T10:30:27.297Z,7776.00
2019-05-04T10:31:27.310Z,9924.00
2019-05-04T10:32:27.271Z,5620.00
2019-05-04T10:33:27.254Z,5296.00
2019-05-04T10:34:27.244Z,5032.00
2019-05-04T10:35:27.238Z,4904.00
2019-05-04T10:36:27.218Z,5120.00
2019-05-04T10:37:27.204Z,10372.00
2019-05-04T10:38:27.194Z,10700.00
2019-05-04T10:39:27.191Z,11308.00
2019-05-04T10:40:27.174Z,11624.00
2019-05-04T10:41:27.160Z,11560.00
2019-05-04T10:42:27.137Z,8828.00
2019-05-04T10:43:27.134Z,7552.00
2019-05-04T10:44:27.112Z,6520.00
2019-05-04T10:45:27.113Z,10128.00
2019-05-04T10:46:27.091Z,6444.00
2019-05-04T10:47:27.083Z,5700.00
2019-05-04T10:49:27.045Z,4412.00
2019-05-04T10:50:27.028Z,3872.00
2019-05-04T10:51:27.031Z,3412.00
2019-05-04T10:52:27.006Z,3112.00
2019-05-04T10:53:26.990Z,2984.00
2019-05-04T10:54:26.977Z,3044.00
2019-05-04T10:55:26.962Z,3316.00
2019-05-04T10:56:26.955Z,8316.00
2019-05-04T10:57:26.942Z,7104.00
2019-05-04T10:58:26.933Z,7948.00
2019-05-04T10:59:26.906Z,4804.00
2019-05-04T11:00:26.901Z,4664.00
2019-05-04T11:01:26.887Z,5084.00
2019-05-04T11:02:26.914Z,5000.00
2019-05-04T11:03:26.843Z,4960.00
2019-05-04T11:04:26.828Z,5036.00
2019-05-04T11:05:28.882Z,5152.00
2019-05-04T11:06:26.797Z,5344.00
2019-05-04T11:07:26.781Z,5612.00
2019-05-04T11:08:26.769Z,5928.00
2019-05-04T11:09:26.750Z,6164.00
2019-05-04T11:10:26.736Z,6344.00
2019-05-04T11:11:26.721Z,6408.00
2019-05-04T11:12:26.708Z,6532.00
2019-05-04T11:13:26.698Z,6376.00
2019-05-04T11:14:26.674Z,6368.00
2019-05-04T11:15:26.676Z,6476.00
2019-05-04T11:16:26.647Z,6672.00
2019-05-04T11:17:26.646Z,7132.00
2019-05-04T11:18:26.616Z,11084.00
2019-05-04T11:19:26.597Z,12048.00
2019-05-04T11:20:26.582Z,12188.00
2019-05-04T11:21:26.573Z,11844.00
2019-05-04T11:22:26.552Z,11296.00
2019-05-04T11:23:26.539Z,10852.00
2019-05-04T11:24:26.525Z,10588.00
2019-05-04T11:25:26.513Z,10340.00
2019-05-04T11:26:26.493Z,10176.00
2019-05-04T11:27:26.476Z,10160.00
2019-05-04T11:28:26.471Z,10224.00
2019-05-04T11:29:26.449Z,10248.00
2019-05-04T11:30:28.348Z,9736.00
2019-05-04T11:31:26.426Z,9636.00
2019-05-04T11:32:26.409Z,9944.00
2019-05-04T11:33:26.390Z,10168.00
2019-05-04T11:34:26.371Z,9644.00
2019-05-04T11:35:26.357Z,9236.00
2019-05-04T11:36:26.345Z,9036.00
2019-05-04T11:37:26.328Z,9152.00
2019-05-04T11:38:26.314Z,9588.00
2019-05-04T11:39:26.302Z,9568.00
2019-05-04T11:40:26.955Z,9500.00
2019-05-04T11:41:26.274Z,9408.00
2019-05-04T11:42:26.265Z,9220.00
2019-05-04T11:43:29.723Z,9084.00
2019-05-04T11:44:27.795Z,8984.00
2019-05-04T11:45:26.222Z,8936.00
2019-05-04T11:46:26.205Z,8880.00
2019-05-04T11:47:26.193Z,8800.00
2019-05-04T11:48:26.175Z,8772.00
2019-05-04T11:49:26.162Z,8768.00
2019-05-04T11:50:26.154Z,8700.00
2019-05-04T11:51:26.132Z,8608.00
2019-05-04T11:52:26.118Z,8636.00
2019-05-04T11:53:26.105Z,8640.00
2019-05-04T11:54:26.091Z,8712.00
2019-05-04T11:55:26.078Z,8776.00
2019-05-04T11:56:26.066Z,8828.00
2019-05-04T11:57:26.057Z,8880.00
2019-05-04T11:58:26.039Z,8972.00
2019-05-04T11:59:26.025Z,9056.00
2019-05-04T12:00:26.018Z,9152.00
2019-05-04T12:01:26.001Z,6088.00
2019-05-04T12:02:25.991Z,7640.00
2019-05-04T12:03:25.969Z,3620.00
2019-05-04T12:04:25.959Z,3524.00
2019-05-04T12:05:25.945Z,3500.00
2019-05-04T12:06:25.930Z,3364.00
2019-05-04T12:07:25.920Z,3472.00
2019-05-04T12:08:25.908Z,3492.00
2019-05-04T12:09:25.883Z,3452.00
2019-05-04T12:10:25.884Z,3412.00
2019-05-04T12:11:25.859Z,3376.00
2019-05-04T12:12:25.855Z,3360.00
2019-05-04T12:13:25.831Z,3492.00
2019-05-04T12:14:25.814Z,3572.00
2019-05-04T12:15:25.807Z,3508.00
2019-05-04T12:16:25.803Z,3424.00
2019-05-04T12:17:25.768Z,3268.00
2019-05-04T12:18:25.866Z,3204.00
2019-05-04T12:19:25.744Z,3212.00
2019-05-04T12:20:25.728Z,3332.00
2019-05-04T12:21:25.710Z,3380.00
2019-05-04T12:22:25.694Z,3428.00
2019-05-04T12:23:25.682Z,3056.00
2019-05-04T12:24:25.667Z,2544.00
2019-05-04T12:25:25.639Z,2284.00
2019-05-04T12:26:25.628Z,2604.00
2019-05-04T12:27:25.625Z,3200.00